createdAt,value
2018-04-29T00:01:52.495Z,10.30
2018-04-29T00:04:19.141Z,15.17
2018-04-29T00:06:46.039Z,13.43
2018-04-29T00:09:12.859Z,11.23
2018-04-29T00:11:40.540Z,10.63
2018-04-29T00:14:07.192Z,11.27
2018-04-29T00:16:33.863Z,13.63
2018-04-29T00:19:01.995Z,14.60
2018-04-29T00:21:28.933Z,15.33
2018-04-29T00:23:55.571Z,12.43
2018-04-29T00:26:22.240Z,16.20
2018-04-29T00:28:48.943Z,11.67
2018-04-29T00:31:15.657Z,12.83
2018-04-29T00:33:43.451Z,15.40
2018-04-29T00:36:10.106Z,11.67
2018-04-29T00:38:36.809Z,11.07
2018-04-29T00:41:04.346Z,12.67
2018-04-29T00:43:31.745Z,15.60
2018-04-29T00:45:58.471Z,18.60
2018-04-29T00:48:25.152Z,12.17
2018-04-29T00:50:51.823Z,11.03
2018-04-29T00:53:18.538Z,13.23
2018-04-29T00:55:45.259Z,13.80
2018-04-29T00:58:11.963Z,13.13
2018-04-29T01:00:38.704Z,14.80
2018-04-29T01:03:05.481Z,11.67
2018-04-29T01:05:33.027Z,14.60
2018-04-29T01:07:59.691Z,15.13
2018-04-29T01:10:26.402Z,16.73
2018-04-29T01:12:53.170Z,12.27
2018-04-29T01:15:20.603Z,13.33
2018-04-29T01:17:47.430Z,17.33
2018-04-29T01:20:14.169Z,14.10
2018-04-29T01:22:40.884Z,13.50
2018-04-29T01:25:08.341Z,13.80
2018-04-29T01:27:35.107Z,11.73
2018-04-29T01:30:01.881Z,12.50
2018-04-29T01:32:29.342Z,10.77
2018-04-29T01:34:56.052Z,12.47
2018-04-29T01:37:22.731Z,13.07
2018-04-29T01:39:49.479Z,12.37
2018-04-29T01:42:16.117Z,11.93
2018-04-29T01:44:43.517Z,17.17
2018-04-29T01:47:10.201Z,14.47
2018-04-29T01:49:36.892Z,11.50
2018-04-29T01:52:03.534Z,11.17
2018-04-29T01:54:30.159Z,12.20
2018-04-29T01:56:57.561Z,11.60
2018-04-29T01:59:24.219Z,10.90
2018-04-29T02:01:50.998Z,13.57
2018-04-29T02:04:17.647Z,12.90
2018-04-29T02:06:44.288Z,13.57
2018-04-29T02:09:11.223Z,16.87
2018-04-29T02:11:37.942Z,12.27
2018-04-29T02:14:05.042Z,14.23
2018-04-29T02:16:31.672Z,13.13
2018-04-29T02:18:58.326Z,14.70
2018-04-29T02:21:25.311Z,12.60
2018-04-29T02:23:52.072Z,14.60
2018-04-29T02:26:18.686Z,12.50
2018-04-29T02:28:45.360Z,15.33
2018-04-29T02:31:12.006Z,14.80
2018-04-29T02:33:38.650Z,12.97
2018-04-29T02:36:05.439Z,15.50
2018-04-29T02:38:32.122Z,16.47
2018-04-29T02:40:58.834Z,15.47
2018-04-29T02:43:25.539Z,15.13
2018-04-29T02:45:52.939Z,15.33
2018-04-29T02:48:19.665Z,16.90
2018-04-29T02:50:46.303Z,15.80
2018-04-29T02:53:13.035Z,16.47
2018-04-29T02:55:40.430Z,18.10
2018-04-29T02:58:07.145Z,16.90
2018-04-29T03:00:33.837Z,15.67
2018-04-29T03:03:00.507Z,17.93
2018-04-29T03:05:27.177Z,17.60
2018-04-29T03:07:53.855Z,14.50
2018-04-29T03:10:20.561Z,14.30
2018-04-29T03:12:47.206Z,14.00
2018-04-29T03:15:13.911Z,15.67
2018-04-29T03:17:40.567Z,16.27
2018-04-29T03:20:07.207Z,15.00
2018-04-29T03:22:33.870Z,16.93
2018-04-29T03:25:00.904Z,14.43
2018-04-29T03:27:27.563Z,18.70
2018-04-29T03:29:54.938Z,15.87
2018-04-29T03:32:22.352Z,19.73
2018-04-29T03:34:49.045Z,13.63
2018-04-29T03:37:16.417Z,17.07
2018-04-29T03:39:43.042Z,16.03
2018-04-29T03:42:09.767Z,15.37
2018-04-29T03:44:37.150Z,16.60
2018-04-29T03:47:04.018Z,16.43
2018-04-29T03:49:30.642Z,15.20
2018-04-29T03:51:57.342Z,16.27
2018-04-29T03:54:25.139Z,16.17
2018-04-29T03:56:51.893Z,14.70
2018-04-29T03:59:30.747Z,15.10
2018-04-29T04:02:10.309Z,16.57
2018-04-29T04:04:36.923Z,15.63
2018-04-29T04:07:03.678Z,14.43
2018-04-29T04:09:30.363Z,16.00
2018-04-29T04:11:57.068Z,19.10
2018-04-29T04:14:24.146Z,18.93
2018-04-29T04:16:50.791Z,17.60
2018-04-29T04:19:17.490Z,16.70
2018-04-29T04:21:44.177Z,17.67
2018-04-29T04:24:10.840Z,16.33
2018-04-29T04:26:39.010Z,20.40
2018-04-29T04:29:05.784Z,15.03
2018-04-29T04:31:33.226Z,17.13
2018-04-29T04:33:59.853Z,20.23
2018-04-29T04:36:26.495Z,14.37
2018-04-29T04:38:53.149Z,18.23
2018-04-29T04:41:20.547Z,17.40
2018-04-29T04:43:47.242Z,17.47
2018-04-29T04:46:14.628Z,16.97
2018-04-29T04:48:41.439Z,16.33
2018-04-29T04:51:08.103Z,17.07
2018-04-29T04:53:34.974Z,18.17
2018-04-29T04:56:01.676Z,20.70
2018-04-29T04:58:28.317Z,18.93
2018-04-29T05:00:54.966Z,19.53
2018-04-29T05:03:21.589Z,18.73
2018-04-29T05:05:48.274Z,19.03
2018-04-29T05:08:14.978Z,24.23
2018-04-29T05:10:41.702Z,19.90
2018-04-29T05:13:08.517Z,16.97
2018-04-29T05:15:35.170Z,23.73
2018-04-29T05:18:02.626Z,23.53
2018-04-29T05:20:30.045Z,22.07
2018-04-29T05:22:56.726Z,19.60
2018-04-29T05:25:24.091Z,22.47
2018-04-29T05:27:51.564Z,19.63
2018-04-29T05:30:18.215Z,20.23
2018-04-29T05:32:44.890Z,20.17
2018-04-29T05:35:11.528Z,19.90
2018-04-29T05:37:38.168Z,18.33
2018-04-29T05:40:04.846Z,18.40
2018-04-29T05:42:31.509Z,16.83
2018-04-29T05:44:58.191Z,15.20
2018-04-29T05:47:24.841Z,15.87
2018-04-29T05:49:52.315Z,15.20
2018-04-29T05:52:19.678Z,15.13
2018-04-29T05:54:46.362Z,13.50
2018-04-29T05:57:13.043Z,12.67
2018-04-29T05:59:39.768Z,13.70
2018-04-29T06:02:06.453Z,14.00
2018-04-29T06:04:33.079Z,13.00
2018-04-29T06:07:00.663Z,13.50
2018-04-29T06:09:27.294Z,13.77
2018-04-29T06:11:53.973Z,13.67
2018-04-29T06:14:21.387Z,14.53
2018-04-29T06:16:48.209Z,13.93
2018-04-29T06:19:14.870Z,14.77
2018-04-29T06:21:41.524Z,12.33
2018-04-29T06:24:08.330Z,12.70
2018-04-29T06:26:35.000Z,12.37
2018-04-29T06:29:02.428Z,12.53
2018-04-29T06:31:29.087Z,12.03
2018-04-29T06:33:56.105Z,13.13
2018-04-29T06:36:22.745Z,11.13
2018-04-29T06:38:49.410Z,12.40
2018-04-29T06:41:16.047Z,14.33
2018-04-29T06:43:42.682Z,11.43
2018-04-29T06:46:09.383Z,12.93
2018-04-29T06:48:36.139Z,14.13
2018-04-29T06:51:02.786Z,14.20
2018-04-29T06:53:29.531Z,10.40
2018-04-29T06:55:56.879Z,12.33
2018-04-29T06:58:23.975Z,9.93
2018-04-29T07:00:50.664Z,10.73
2018-04-29T07:03:17.258Z,9.03
2018-04-29T07:05:44.686Z,9.83
2018-04-29T07:08:11.354Z,9.17
2018-04-29T07:10:38.000Z,10.27
2018-04-29T07:13:05.476Z,8.50
2018-04-29T07:15:32.127Z,9.17
2018-04-29T07:17:58.816Z,10.03
2018-04-29T07:20:25.523Z,10.07
2018-04-29T07:22:52.294Z,11.00
2018-04-29T07:25:18.949Z,8.90
2018-04-29T07:27:45.841Z,13.97
2018-04-29T07:30:12.439Z,11.40
2018-04-29T07:32:39.074Z,8.13
2018-04-29T07:35:06.166Z,11.53
2018-04-29T07:37:32.876Z,13.17
2018-04-29T07:39:59.583Z,10.77
2018-04-29T07:42:26.191Z,8.77
2018-04-29T07:44:52.845Z,7.23
2018-04-29T07:47:19.470Z,9.27
2018-04-29T07:49:46.116Z,8.93
2018-04-29T07:52:12.865Z,8.00
2018-04-29T07:54:40.308Z,11.47
2018-04-29T07:57:06.963Z,9.23
2018-04-29T07:59:34.388Z,9.57
2018-04-29T08:02:01.026Z,11.90
2018-04-29T08:04:27.687Z,8.73
2018-04-29T08:06:54.300Z,7.53
2018-04-29T08:09:20.965Z,8.20
2018-04-29T08:11:47.746Z,8.87
2018-04-29T08:14:14.484Z,13.17
2018-04-29T08:16:41.225Z,9.80
2018-04-29T08:19:08.287Z,7.03
2018-04-29T08:21:34.962Z,8.60
2018-04-29T08:24:01.600Z,9.93
2018-04-29T08:26:28.280Z,9.93
2018-04-29T08:28:54.940Z,7.33
2018-04-29T08:31:21.607Z,10.90
2018-04-29T08:33:48.248Z,10.27
2018-04-29T08:36:14.949Z,7.90
2018-04-29T08:38:41.606Z,7.73
2018-04-29T08:41:08.252Z,9.57
2018-04-29T08:43:34.881Z,9.77
2018-04-29T08:46:01.576Z,9.23
2018-04-29T08:48:28.335Z,10.63
2018-04-29T08:50:54.994Z,13.30
2018-04-29T08:53:21.650Z,11.93
2018-04-29T08:55:48.343Z,8.47
2018-04-29T08:58:15.521Z,7.37
2018-04-29T09:00:42.168Z,8.00
2018-04-29T09:03:08.817Z,12.63
2018-04-29T09:05:35.952Z,9.90
2018-04-29T09:08:02.626Z,10.57
2018-04-29T09:10:29.231Z,14.00
2018-04-29T09:12:56.139Z,10.83
2018-04-29T09:15:22.766Z,9.37
2018-04-29T09:17:49.471Z,11.20
2018-04-29T09:20:16.142Z,10.33
2018-04-29T09:22:42.810Z,7.63
2018-04-29T09:25:09.453Z,7.10
2018-04-29T09:27:36.124Z,7.60
2018-04-29T09:30:02.913Z,8.43
2018-04-29T09:32:29.528Z,9.13
2018-04-29T09:34:56.911Z,12.00
2018-04-29T09:37:23.538Z,8.73
2018-04-29T09:39:50.201Z,8.40
2018-04-29T09:42:16.808Z,9.87
2018-04-29T09:44:44.444Z,9.30
2018-04-29T09:47:11.821Z,9.83
2018-04-29T09:49:38.540Z,10.63
2018-04-29T09:52:08.820Z,8.30
2018-04-29T09:54:35.532Z,9.37
2018-04-29T09:57:02.235Z,9.07
2018-04-29T09:59:29.731Z,8.73
2018-04-29T10:02:02.337Z,8.23
2018-04-29T10:04:28.988Z,8.33
2018-04-29T10:06:55.641Z,7.47
2018-04-29T10:09:22.868Z,9.13
2018-04-29T10:11:50.294Z,11.43
2018-04-29T10:14:17.030Z,11.23
2018-04-29T10:16:43.709Z,7.50
2018-04-29T10:19:10.369Z,15.17
2018-04-29T10:21:37.761Z,6.93
2018-04-29T10:24:04.403Z,8.87
2018-04-29T10:26:31.037Z,7.80
2018-04-29T10:28:57.742Z,9.63
2018-04-29T10:31:24.378Z,8.00
2018-04-29T10:33:51.938Z,6.20
2018-04-29T10:36:18.574Z,8.47
2018-04-29T10:38:45.979Z,8.17
2018-04-29T10:41:12.609Z,7.17
2018-04-29T10:43:39.236Z,8.00
2018-04-29T10:46:05.902Z,8.60
2018-04-29T10:48:32.570Z,7.27
2018-04-29T10:50:59.281Z,6.60
2018-04-29T10:53:25.918Z,7.43
2018-04-29T10:55:52.580Z,6.40
2018-04-29T10:58:19.378Z,9.90
2018-04-29T11:00:45.999Z,5.07
2018-04-29T11:03:12.706Z,6.83
2018-04-29T11:05:39.334Z,8.97
2018-04-29T11:08:07.479Z,6.80
2018-04-29T11:10:34.114Z,8.77
2018-04-29T11:13:00.754Z,9.60
2018-04-29T11:15:27.705Z,8.37
2018-04-29T11:17:54.410Z,7.70
2018-04-29T11:20:21.246Z,5.80
2018-04-29T11:22:48.723Z,6.13
2018-04-29T11:25:15.383Z,9.10
2018-04-29T11:27:42.004Z,8.50
2018-04-29T11:30:08.665Z,8.37
2018-04-29T11:32:35.283Z,9.13
2018-04-29T11:35:01.938Z,8.63
2018-04-29T11:37:28.600Z,6.13
2018-04-29T11:39:55.305Z,11.13
2018-04-29T11:42:21.978Z,9.17
2018-04-29T11:44:48.671Z,9.77
2018-04-29T11:47:15.462Z,10.27
2018-04-29T11:49:42.893Z,11.10
2018-04-29T11:52:09.550Z,7.87
2018-04-29T11:54:36.221Z,6.90
2018-04-29T11:57:02.826Z,5.67
2018-04-29T11:59:29.712Z,7.17
2018-04-29T12:01:56.504Z,5.93
2018-04-29T12:04:23.090Z,7.30
2018-04-29T12:06:49.765Z,5.93
2018-04-29T12:09:16.413Z,9.73
2018-04-29T12:11:43.086Z,6.97
2018-04-29T12:14:10.461Z,8.07
2018-04-29T12:16:37.147Z,7.43
2018-04-29T12:19:03.940Z,6.47
2018-04-29T12:21:30.680Z,6.70
2018-04-29T12:23:57.315Z,7.57
2018-04-29T12:26:24.471Z,6.83
2018-04-29T12:28:51.125Z,8.43
2018-04-29T12:31:17.757Z,7.13
2018-04-29T12:33:44.435Z,7.27
2018-04-29T12:36:11.134Z,8.30
2018-04-29T12:38:37.807Z,8.33
2018-04-29T12:41:04.510Z,6.60
2018-04-29T12:43:31.161Z,10.80
2018-04-29T12:45:57.799Z,6.90
2018-04-29T12:48:24.471Z,6.77
2018-04-29T12:50:51.970Z,8.00
2018-04-29T12:53:18.610Z,8.70
2018-04-29T12:55:45.682Z,9.53
2018-04-29T12:58:12.309Z,6.33
2018-04-29T13:00:39.032Z,11.20
2018-04-29T13:03:05.774Z,9.83
2018-04-29T13:05:32.419Z,9.60
2018-04-29T13:07:59.101Z,6.73
2018-04-29T13:10:25.750Z,9.63
2018-04-29T13:12:52.408Z,5.53
2018-04-29T13:15:20.290Z,4.97
2018-04-29T13:17:46.982Z,5.37
2018-04-29T13:20:13.594Z,5.40
2018-04-29T13:22:40.272Z,7.80
2018-04-29T13:25:07.696Z,4.00
2018-04-29T13:27:34.378Z,4.77
2018-04-29T13:30:01.815Z,4.73
2018-04-29T13:32:28.476Z,6.17
2018-04-29T13:34:56.282Z,5.03
2018-04-29T13:37:22.922Z,5.03
2018-04-29T13:39:49.530Z,8.53
2018-04-29T13:42:16.274Z,7.27
2018-04-29T13:44:42.831Z,7.67
2018-04-29T13:47:09.673Z,7.90
2018-04-29T13:49:36.293Z,6.87
2018-04-29T13:52:03.031Z,6.60
2018-04-29T13:54:29.702Z,6.10
2018-04-29T13:56:56.324Z,8.00
2018-04-29T13:59:22.972Z,6.53
2018-04-29T14:01:49.906Z,4.97
2018-04-29T14:04:16.536Z,7.37
2018-04-29T14:06:43.142Z,5.63
2018-04-29T14:09:10.590Z,5.07
2018-04-29T14:11:38.184Z,8.00
2018-04-29T14:14:04.864Z,5.97
2018-04-29T14:16:32.971Z,5.70
2018-04-29T14:19:00.388Z,4.10
2018-04-29T14:21:27.080Z,7.03
2018-04-29T14:23:53.712Z,6.37
2018-04-29T14:26:20.362Z,5.03
2018-04-29T14:28:47.087Z,5.23
2018-04-29T14:31:13.739Z,6.57
2018-04-29T14:33:40.351Z,5.37
2018-04-29T14:36:07.804Z,5.17
2018-04-29T14:38:35.162Z,6.27
2018-04-29T14:41:01.778Z,8.03
2018-04-29T14:43:28.441Z,7.13
2018-04-29T14:45:55.075Z,4.70
2018-04-29T14:48:22.146Z,5.53
2018-04-29T14:50:48.759Z,4.87
2018-04-29T14:53:16.139Z,5.97
2018-04-29T14:55:42.859Z,5.47
2018-04-29T14:58:09.485Z,3.70
2018-04-29T15:00:36.902Z,4.50
2018-04-29T15:03:03.604Z,3.83
2018-04-29T15:05:30.272Z,4.07
2018-04-29T15:07:56.906Z,5.53
2018-04-29T15:10:23.586Z,5.37
2018-04-29T15:12:50.947Z,4.37
2018-04-29T15:15:18.781Z,3.73
2018-04-29T15:17:45.462Z,5.10
2018-04-29T15:20:12.119Z,4.50
2018-04-29T15:22:38.824Z,5.20
2018-04-29T15:25:05.558Z,5.23
2018-04-29T15:27:32.999Z,3.20
2018-04-29T15:29:59.639Z,5.50
2018-04-29T15:32:27.807Z,3.43
2018-04-29T15:34:54.463Z,6.50
2018-04-29T15:37:21.140Z,4.47
2018-04-29T15:39:47.756Z,3.57
2018-04-29T15:42:14.515Z,4.07
2018-04-29T15:44:41.191Z,4.57
2018-04-29T15:47:07.880Z,5.83
2018-04-29T15:49:34.526Z,5.37
2018-04-29T15:52:01.199Z,4.40
2018-04-29T15:54:27.811Z,5.27
2018-04-29T15:56:54.550Z,5.13
2018-04-29T15:59:21.208Z,4.67
2018-04-29T16:01:47.866Z,6.80
2018-04-29T16:04:16.040Z,5.57
2018-04-29T16:06:42.802Z,5.13
2018-04-29T16:09:10.290Z,5.57
2018-04-29T16:11:36.948Z,5.97
2018-04-29T16:14:03.640Z,6.47
2018-04-29T16:16:31.165Z,6.57
2018-04-29T16:18:57.796Z,5.97
2018-04-29T16:21:24.442Z,6.17
2018-04-29T16:23:51.196Z,5.70
2018-04-29T16:26:17.838Z,4.20
2018-04-29T16:28:44.619Z,4.03
2018-04-29T16:31:11.290Z,5.40
2018-04-29T16:33:37.971Z,4.50
2018-04-29T16:36:05.369Z,6.10
2018-04-29T16:38:31.995Z,3.83
2018-04-29T16:40:58.862Z,5.80
2018-04-29T16:43:25.532Z,7.07
2018-04-29T16:45:52.169Z,4.83
2018-04-29T16:48:18.842Z,7.50
2018-04-29T16:50:45.489Z,4.77
2018-04-29T16:53:12.206Z,4.73
2018-04-29T16:55:39.591Z,4.17
2018-04-29T16:58:06.241Z,5.70
2018-04-29T17:00:32.983Z,4.27
2018-04-29T17:02:59.645Z,5.87
2018-04-29T17:05:27.077Z,4.13
2018-04-29T17:07:53.749Z,5.60
2018-04-29T17:10:20.390Z,5.53
2018-04-29T17:12:47.170Z,4.00
2018-04-29T17:15:13.909Z,4.70
2018-04-29T17:17:40.570Z,6.77
2018-04-29T17:20:07.243Z,4.30
2018-04-29T17:22:34.025Z,4.57
2018-04-29T17:25:00.674Z,4.90
2018-04-29T17:27:27.320Z,9.00
2018-04-29T17:29:53.993Z,6.60
2018-04-29T17:32:20.639Z,4.87
2018-04-29T17:34:47.518Z,7.00
2018-04-29T17:37:14.110Z,7.83
2018-04-29T17:39:40.868Z,5.53
2018-04-29T17:42:08.285Z,6.50
2018-04-29T17:44:34.991Z,6.60
2018-04-29T17:47:01.666Z,6.20
2018-04-29T17:49:28.314Z,6.47
2018-04-29T17:51:55.047Z,10.10
2018-04-29T17:54:21.678Z,7.37
2018-04-29T17:56:48.384Z,5.83
2018-04-29T17:59:15.041Z,4.90
2018-04-29T18:01:41.868Z,6.00
2018-04-29T18:04:08.502Z,5.43
2018-04-29T18:06:35.156Z,8.87
2018-04-29T18:09:01.819Z,7.63
2018-04-29T18:11:29.249Z,7.57
2018-04-29T18:13:55.921Z,7.73
2018-04-29T18:16:22.566Z,10.70
2018-04-29T18:18:50.033Z,12.30
2018-04-29T18:21:16.699Z,11.90
2018-04-29T18:23:44.064Z,7.27
2018-04-29T18:26:10.743Z,8.27
2018-04-29T18:28:37.381Z,9.33
2018-04-29T18:31:04.116Z,9.30
2018-04-29T18:33:30.735Z,8.77
2018-04-29T18:35:57.453Z,9.73
2018-04-29T18:38:24.088Z,8.53
2018-04-29T18:40:50.796Z,9.97
2018-04-29T18:43:18.284Z,9.00
2018-04-29T18:45:44.925Z,8.50
2018-04-29T18:48:11.589Z,12.00
2018-04-29T18:50:38.338Z,9.00
2018-04-29T18:53:04.901Z,7.30
2018-04-29T18:55:32.288Z,5.83
2018-04-29T18:57:58.915Z,7.90
2018-04-29T19:00:25.640Z,10.00
2018-04-29T19:02:53.059Z,9.30
2018-04-29T19:05:20.117Z,7.67
2018-04-29T19:07:46.882Z,10.20
2018-04-29T19:10:14.270Z,8.20
2018-04-29T19:12:40.954Z,9.97
2018-04-29T19:15:07.644Z,8.50
2018-04-29T19:17:34.464Z,8.53
2018-04-29T19:20:01.177Z,8.90
2018-04-29T19:22:27.834Z,6.73
2018-04-29T19:24:55.461Z,11.17
2018-04-29T19:27:22.097Z,8.20
2018-04-29T19:29:48.758Z,14.07
2018-04-29T19:32:15.484Z,9.33
2018-04-29T19:34:42.113Z,9.33
2018-04-29T19:37:08.787Z,10.03
2018-04-29T19:39:36.152Z,8.93
2018-04-29T19:42:03.023Z,13.30
2018-04-29T19:44:29.621Z,9.77
2018-04-29T19:46:56.254Z,8.67
2018-04-29T19:49:23.674Z,9.90
2018-04-29T19:51:50.303Z,9.10
2018-04-29T19:54:16.960Z,8.10
2018-04-29T19:56:43.655Z,10.33
2018-04-29T19:59:11.241Z,8.93
2018-04-29T20:01:37.870Z,9.83
2018-04-29T20:04:04.515Z,12.10
2018-04-29T20:06:31.205Z,11.60
2018-04-29T20:08:58.643Z,10.87
2018-04-29T20:11:25.402Z,10.93
2018-04-29T20:13:52.019Z,9.90
2018-04-29T20:16:18.703Z,15.77
2018-04-29T20:18:45.356Z,10.93
2018-04-29T20:21:12.018Z,13.57
2018-04-29T20:23:39.368Z,10.17
2018-04-29T20:26:06.050Z,11.13
2018-04-29T20:28:33.414Z,11.77
2018-04-29T20:31:00.833Z,10.47
2018-04-29T20:33:27.486Z,12.53
2018-04-29T20:35:54.126Z,13.80
2018-04-29T20:38:21.139Z,11.77
2018-04-29T20:40:48.663Z,11.33
2018-04-29T20:43:15.368Z,10.13
2018-04-29T20:45:41.958Z,10.10
2018-04-29T20:48:08.580Z,10.87
2018-04-29T20:50:35.164Z,10.13
2018-04-29T20:53:01.810Z,9.77
2018-04-29T20:55:28.483Z,13.03
2018-04-29T20:57:55.114Z,12.20
2018-04-29T21:00:21.764Z,11.63
2018-04-29T21:02:48.410Z,12.10
2018-04-29T21:05:14.991Z,11.37
2018-04-29T21:07:41.808Z,12.73
2018-04-29T21:10:09.198Z,16.77
2018-04-29T21:12:35.833Z,12.90
2018-04-29T21:15:02.470Z,9.17
2018-04-29T21:17:29.127Z,11.30
2018-04-29T21:19:55.869Z,11.93
2018-04-29T21:22:22.557Z,8.70
2018-04-29T21:24:49.249Z,12.00
2018-04-29T21:27:15.845Z,10.17
2018-04-29T21:29:42.528Z,8.97
2018-04-29T21:32:09.175Z,13.73
2018-04-29T21:34:35.821Z,10.87
2018-04-29T21:37:02.479Z,15.03
2018-04-29T21:39:29.069Z,10.87
2018-04-29T21:41:55.635Z,11.33
2018-04-29T21:44:22.639Z,8.13
2018-04-29T21:46:50.029Z,10.03
2018-04-29T21:49:16.675Z,10.70
2018-04-29T21:51:43.471Z,12.50
2018-04-29T21:54:10.210Z,8.20
2018-04-29T21:56:36.887Z,11.10
2018-04-29T21:59:03.486Z,11.43
2018-04-29T22:01:30.068Z,8.67
2018-04-29T22:03:56.667Z,9.03
2018-04-29T22:06:23.248Z,9.63
2018-04-29T22:08:49.878Z,8.90
2018-04-29T22:11:16.535Z,11.07
2018-04-29T22:13:43.880Z,9.60
2018-04-29T22:16:11.186Z,11.97
2018-04-29T22:18:37.791Z,9.80
2018-04-29T22:21:04.770Z,13.20
2018-04-29T22:23:31.419Z,10.17
2018-04-29T22:25:58.054Z,12.33
2018-04-29T22:28:24.626Z,10.57
2018-04-29T22:30:51.243Z,8.90
2018-04-29T22:33:17.819Z,8.63
2018-04-29T22:35:44.491Z,10.03
2018-04-29T22:38:11.097Z,9.20
2018-04-29T22:40:38.509Z,12.10
2018-04-29T22:43:05.216Z,10.03
2018-04-29T22:45:31.814Z,7.13
2018-04-29T22:47:59.139Z,9.27
2018-04-29T22:50:25.743Z,11.00
2018-04-29T22:52:52.374Z,8.27
2018-04-29T22:55:19.006Z,7.87
2018-04-29T22:57:48.586Z,8.27
2018-04-29T23:00:15.969Z,10.10
2018-04-29T23:02:43.472Z,8.77
2018-04-29T23:05:10.179Z,7.90
2018-04-29T23:07:37.554Z,8.47
2018-04-29T23:10:04.236Z,12.43
2018-04-29T23:12:31.677Z,9.13
2018-04-29T23:14:58.316Z,7.77
2018-04-29T23:17:24.998Z,7.73
2018-04-29T23:19:51.647Z,9.17
2018-04-29T23:22:19.111Z,9.40
2018-04-29T23:24:45.809Z,11.27
2018-04-29T23:27:13.433Z,13.13
2018-04-29T23:29:40.109Z,7.60
2018-04-29T23:32:06.754Z,11.90
2018-04-29T23:34:33.547Z,12.37
2018-04-29T23:37:00.357Z,11.23
2018-04-29T23:39:27.748Z,10.40
2018-04-29T23:41:54.394Z,9.60
2018-04-29T23:44:21.078Z,10.17
2018-04-29T23:46:47.731Z,10.60
2018-04-29T23:49:15.132Z,10.57
2018-04-29T23:51:41.795Z,7.40
2018-04-29T23:54:08.641Z,10.53
2018-04-29T23:56:35.281Z,7.07
2018-04-29T23:59:01.913Z,9.17
